Time,TemperatureF,DewpointF,PressureIn,WindDirection,WindDirectionDegrees,WindSpeedMPH,WindSpeedGustMPH,Humidity,HourlyPrecipIn,Conditions,Clouds,dailyrainin,SoftwareType,DateUTC
2013-03-08 00:00:00,25.3,25.3,30.24,NNW,338,0.0,0.0,100,0.00,,CLR,0.00,VWS V14.01,2013-03-08 05:00:00,
2013-03-08 00:03:00,25.3,25.3,30.24,NNW,338,0.0,0.0,100,0.00,,CLR,0.00,VWS V14.01,2013-03-08 05:03:00,
2013-03-08 00:08:00,25.2,25.2,30.24,NNW,338,0.0,0.0,100,0.00,,CLR,0.00,VWS V14.01,2013-03-08 05:08:00,
2013-03-08 00:13:00,25.0,25.0,30.24,NNW,338,0.0,0.0,100,0.00,,CLR,0.00,VWS V14.01,2013-03-08 05:13:00,
2013-03-08 00:18:00,25.0,25.0,30.24,NNW,338,0.0,0.0,100,0.00,,CLR,0.00,VWS V14.01,2013-03-08 05:18:00,
2013-03-08 00:23:00,25.2,25.2,30.24,NNW,338,0.0,0.0,100,0.00,,CLR,0.00,VWS V14.01,2013-03-08 05:23:00,
2013-03-08 00:28:00,25.0,25.0,30.24,NNW,338,0.0,0.0,100,0.00,,CLR,0.00,VWS V14.01,2013-03-08 05:28:00,
2013-03-08 00:33:00,24.8,24.8,30.24,NNW,338,0.0,0.0,100,0.00,,CLR,0.00,VWS V14.01,2013-03-08 05:33:00,
2013-03-08 00:39:00,25.3,25.3,30.24,NNW,338,0.0,0.0,100,0.00,,CLR,0.00,VWS V14.01,2013-03-08 05:39:00,
2013-03-08 00:44:00,24.8,24.8,30.24,NNW,338,0.0,0.0,100,0.00,,CLR,0.00,VWS V14.01,2013-03-08 05:44:00,
2013-03-08 00:49:00,24.8,24.8,30.24,NNW,338,0.0,0.0,100,0.00,,CLR,0.00,VWS V14.01,2013-03-08 05:49:00,
2013-03-08 00:54:00,24.8,24.8,30.24,NNW,338,0.0,0.0,100,0.00,,CLR,0.00,VWS V14.01,2013-03-08 05:54:00,
2013-03-08 00:59:00,24.3,24.3,30.24,NNW,338,0.0,0.0,100,0.00,,CLR,0.00,VWS V14.01,2013-03-08 05:59:00,
2013-03-08 01:04:00,23.9,23.9,30.24,NNW,338,0.0,0.0,100,0.00,,CLR,0.00,VWS V14.01,2013-03-08 06:04:00,
2013-03-08 01:09:00,23.7,23.7,30.24,NNW,338,0.0,0.0,100,0.00,,CLR,0.00,VWS V14.01,2013-03-08 06:09:00,
2013-03-08 01:14:00,23.7,23.7,30.24,NNW,338,0.0,0.0,100,0.00,,CLR,0.00,VWS V14.01,2013-03-08 06:14:00,
2013-03-08 01:19:00,23.5,23.5,30.24,NNW,338,0.0,0.0,100,0.00,,CLR,0.00,VWS V14.01,2013-03-08 06:19:00,
2013-03-08 01:24:00,23.5,23.5,30.24,NNW,338,0.0,0.0,100,0.00,,CLR,0.00,VWS V14.01,2013-03-08 06:24:00,
2013-03-08 01:29:00,23.5,23.5,30.24,NNW,338,0.0,0.0,100,0.00,,CLR,0.00,VWS V14.01,2013-03-08 06:29:00,
2013-03-08 01:34:00,24.3,24.3,30.24,NNW,338,0.0,0.0,100,0.00,,CLR,0.00,VWS V14.01,2013-03-08 06:34:00,
2013-03-08 01:39:00,23.5,23.5,30.24,NNW,338,0.0,0.0,100,0.00,,CLR,0.00,VWS V14.01,2013-03-08 06:39:00,
2013-03-08 01:44:00,23.7,23.7,30.24,NNW,338,0.0,0.0,100,0.00,,CLR,0.00,VWS V14.01,2013-03-08 06:44:00,
2013-03-08 01:49:00,23.4,23.4,30.24,NNW,338,0.0,0.0,100,0.00,,CLR,0.00,VWS V14.01,2013-03-08 06:49:00,
2013-03-08 01:54:00,23.4,23.4,30.24,NNW,338,0.0,0.0,100,0.00,,CLR,0.00,VWS V14.01,2013-03-08 06:54:00,
2013-03-08 01:59:00,23.5,23.5,30.24,NNW,338,0.0,0.0,100,0.00,,CLR,0.00,VWS V14.01,2013-03-08 06:59:00,
2013-03-08 02:04:00,23.9,23.9,30.24,NNW,338,2.2,2.2,100,0.00,,CLR,0.00,VWS V14.01,2013-03-08 07:04:00,
2013-03-08 02:09:00,23.9,23.9,30.24,NNW,338,0.0,0.0,100,0.00,,CLR,0.00,VWS V14.01,2013-03-08 07:09:00,
2013-03-08 02:14:00,23.9,23.9,30.24,West,270,2.7,3.1,100,0.00,,CLR,0.00,VWS V14.01,2013-03-08 07:14:00,
2013-03-08 02:19:00,23.9,23.9,30.24,West,270,0.0,0.0,100,0.00,,CLR,0.00,VWS V14.01,2013-03-08 07:19:00,
2013-03-08 02:24:00,24.1,24.1,30.24,West,270,0.0,0.0,100,0.00,,CLR,0.00,VWS V14.01,2013-03-08 07:24:00,
2013-03-08 02:29:00,24.1,24.1,30.24,West,270,0.0,0.0,100,0.00,,CLR,0.00,VWS V14.01,2013-03-08 07:29:00,
2013-03-08 02:34:00,23.7,23.7,30.24,West,270,2.7,2.7,100,0.00,,CLR,0.00,VWS V14.01,2013-03-08 07:34:00,
2013-03-08 02:39:00,24.1,24.1,30.24,West,270,0.0,0.0,100,0.00,,CLR,0.00,VWS V14.01,2013-03-08 07:39:00,
2013-03-08 02:44:00,23.9,23.9,30.24,West,270,0.0,0.0,100,0.00,,CLR,0.00,VWS V14.01,2013-03-08 07:44:00,
2013-03-08 02:49:00,23.9,23.9,30.24,West,270,0.0,0.0,100,0.00,,CLR,0.00,VWS V14.01,2013-03-08 07:49:00,
2013-03-08 02:54:00,23.9,23.9,30.24,West,270,2.7,2.7,100,0.00,,CLR,0.00,VWS V14.01,2013-03-08 07:54:00,
2013-03-08 02:59:00,23.7,23.7,30.24,West,270,0.0,0.0,100,0.00,,CLR,0.00,VWS V14.01,2013-03-08 07:59:00,
2013-03-08 03:04:00,23.7,23.7,30.24,West,270,0.0,2.2,100,0.00,,CLR,0.00,VWS V14.01,2013-03-08 08:04:00,
2013-03-08 03:09:00,23.7,23.7,30.24,West,270,0.0,0.0,100,0.00,,CLR,0.00,VWS V14.01,2013-03-08 08:09:00,
2013-03-08 03:14:00,23.0,23.0,30.24,West,270,0.0,0.0,100,0.00,,CLR,0.00,VWS V14.01,2013-03-08 08:14:00,
2013-03-08 03:19:00,22.8,22.8,30.24,West,270,0.0,0.0,100,0.00,,CLR,0.00,VWS V14.01,2013-03-08 08:19:00,
2013-03-08 03:24:00,22.3,22.3,30.24,West,270,0.0,0.0,100,0.00,,CLR,0.00,VWS V14.01,2013-03-08 08:24:00,
2013-03-08 03:29:00,22.3,22.3,30.24,West,270,0.0,0.0,100,0.00,,CLR,0.00,VWS V14.01,2013-03-08 08:29:00,
2013-03-08 03:34:00,21.9,21.9,30.24,West,270,0.0,0.0,100,0.00,,CLR,0.00,VWS V14.01,2013-03-08 08:34:00,
2013-03-08 03:39:00,21.9,21.9,30.24,West,270,0.0,0.0,100,0.00,,CLR,0.00,VWS V14.01,2013-03-08 08:39:00,
2013-03-08 03:44:00,21.9,21.9,30.24,West,270,0.0,0.0,100,0.00,,CLR,0.00,VWS V14.01,2013-03-08 08:44:00,
2013-03-08 03:49:00,22.6,22.6,30.24,West,270,0.0,0.0,100,0.00,,CLR,0.00,VWS V14.01,2013-03-08 08:49:00,
2013-03-08 03:54:00,23.0,23.0,30.24,West,270,0.0,0.0,100,0.00,,CLR,0.00,VWS V14.01,2013-03-08 08:54:00,
2013-03-08 03:59:00,23.2,23.2,30.24,West,270,0.0,0.0,100,0.00,,CLR,0.00,VWS V14.01,2013-03-08 08:59:00,
2013-03-08 04:04:00,22.6,22.6,30.24,West,270,0.0,0.0,100,0.00,,CLR,0.00,VWS V14.01,2013-03-08 09:04:00,
2013-03-08 04:09:00,22.5,22.5,30.24,West,270,0.0,0.0,100,0.00,,CLR,0.00,VWS V14.01,2013-03-08 09:09:00,
2013-03-08 04:15:00,22.3,22.3,30.24,West,270,0.0,0.0,100,0.00,,CLR,0.00,VWS V14.01,2013-03-08 09:15:00,
2013-03-08 04:20:00,22.5,22.5,30.24,West,270,0.0,2.2,100,0.00,,CLR,0.00,VWS V14.01,2013-03-08 09:20:00,
2013-03-08 04:25:00,22.5,22.5,30.24,West,270,0.0,0.0,100,0.00,,CLR,0.00,VWS V14.01,2013-03-08 09:25:00,
2013-03-08 04:30:00,22.8,22.8,30.24,West,270,0.0,2.2,100,0.00,,CLR,0.00,VWS V14.01,2013-03-08 09:30:00,
2013-03-08 04:35:00,22.8,22.8,30.24,West,270,0.0,0.0,100,0.00,,CLR,0.00,VWS V14.01,2013-03-08 09:35:00,
2013-03-08 04:40:00,23.0,23.0,30.24,West,270,0.0,0.0,100,0.00,,CLR,0.00,VWS V14.01,2013-03-08 09:40:00,
2013-03-08 04:45:00,23.0,23.0,30.24,West,270,0.0,0.0,100,0.00,,CLR,0.00,VWS V14.01,2013-03-08 09:45:00,
2013-03-08 04:50:00,22.6,22.6,30.24,West,270,0.0,0.0,100,0.00,,CLR,0.00,VWS V14.01,2013-03-08 09:50:00,
2013-03-08 04:55:00,22.3,22.3,30.24,West,270,0.0,0.0,100,0.00,,CLR,0.00,VWS V14.01,2013-03-08 09:55:00,
2013-03-08 05:00:00,22.5,22.5,30.24,West,270,0.0,0.0,100,0.00,,CLR,0.00,VWS V14.01,2013-03-08 10:00:00,
2013-03-08 05:05:00,21.9,21.9,30.24,West,270,0.0,0.0,100,0.00,,CLR,0.00,VWS V14.01,2013-03-08 10:05:00,
2013-03-08 05:10:00,21.9,21.9,30.24,West,270,0.0,0.0,100,0.00,,CLR,0.00,VWS V14.01,2013-03-08 10:10:00,
2013-03-08 05:15:00,21.6,21.6,30.24,West,270,0.0,0.0,100,0.00,,CLR,0.00,VWS V14.01,2013-03-08 10:15:00,
2013-03-08 05:20:00,21.7,21.7,30.24,West,270,0.0,0.0,100,0.00,,CLR,0.00,VWS V14.01,2013-03-08 10:20:00,
2013-03-08 05:25:00,21.4,21.4,30.24,West,270,0.0,0.0,100,0.00,,CLR,0.00,VWS V14.01,2013-03-08 10:25:00,
2013-03-08 05:30:00,21.6,21.6,30.24,West,270,0.0,0.0,100,0.00,,CLR,0.00,VWS V14.01,2013-03-08 10:30:00,
2013-03-08 05:35:00,21.4,21.4,30.24,West,270,0.0,0.0,100,0.00,,CLR,0.00,VWS V14.01,2013-03-08 10:35:00,
2013-03-08 05:40:00,21.6,21.6,30.24,West,270,0.0,0.0,100,0.00,,CLR,0.00,VWS V14.01,2013-03-08 10:40:00,
2013-03-08 05:45:00,21.7,21.7,30.24,West,270,0.0,2.2,100,0.00,,CLR,0.00,VWS V14.01,2013-03-08 10:45:00,
2013-03-08 05:50:00,21.6,21.6,30.27,West,270,0.0,0.0,100,0.00,,CLR,0.00,VWS V14.01,2013-03-08 10:50:00,
2013-03-08 05:55:00,21.7,21.7,30.27,West,270,0.0,0.0,100,0.00,,CLR,0.00,VWS V14.01,2013-03-08 10:55:00,
2013-03-08 06:00:00,21.9,21.9,30.27,West,270,2.7,3.1,100,0.00,,CLR,0.00,VWS V14.01,2013-03-08 11:00:00,
2013-03-08 06:05:00,22.5,22.5,30.27,West,270,0.0,0.0,100,0.00,,CLR,0.00,VWS V14.01,2013-03-08 11:05:00,
2013-03-08 06:10:00,22.5,22.5,30.27,West,270,0.0,0.0,100,0.00,,CLR,0.00,VWS V14.01,2013-03-08 11:10:00,
2013-03-08 06:15:00,22.1,22.1,30.27,West,270,0.0,0.0,100,0.00,,CLR,0.00,VWS V14.01,2013-03-08 11:15:00,
2013-03-08 06:20:00,21.9,21.9,30.27,West,270,0.0,0.0,100,0.00,,CLR,0.00,VWS V14.01,2013-03-08 11:20:00,
2013-03-08 06:25:00,21.6,21.6,30.27,West,270,0.0,0.0,100,0.00,,CLR,0.00,VWS V14.01,2013-03-08 11:25:00,
2013-03-08 06:30:00,21.6,21.6,30.27,West,270,0.0,0.0,100,0.00,,CLR,0.00,VWS V14.01,2013-03-08 11:30:00,
2013-03-08 06:35:00,21.4,21.4,30.27,West,270,0.0,0.0,100,0.00,,CLR,0.00,VWS V14.01,2013-03-08 11:35:00,
2013-03-08 06:40:00,21.4,21.4,30.27,West,270,0.0,0.0,100,0.00,,CLR,0.00,VWS V14.01,2013-03-08 11:40:00,
2013-03-08 06:45:00,21.6,21.6,30.27,West,270,0.0,0.0,100,0.00,,CLR,0.00,VWS V14.01,2013-03-08 11:45:00,
2013-03-08 06:50:00,21.6,21.6,30.27,West,270,0.0,0.0,100,0.00,,CLR,0.00,VWS V14.01,2013-03-08 11:50:00,
2013-03-08 06:55:00,21.4,21.4,30.27,West,270,0.0,0.0,100,0.00,,CLR,0.00,VWS V14.01,2013-03-08 11:55:00,
2013-03-08 07:00:00,21.4,21.4,30.27,West,270,0.0,0.0,100,0.00,,CLR,0.00,VWS V14.01,2013-03-08 12:00:00,
2013-03-08 07:05:00,21.6,21.6,30.27,West,270,0.0,0.0,100,0.00,,CLR,0.00,VWS V14.01,2013-03-08 12:05:00,
2013-03-08 07:10:00,21.4,21.4,30.27,West,270,0.0,0.0,100,0.00,,CLR,0.00,VWS V14.01,2013-03-08 12:10:00,
2013-03-08 07:15:00,21.4,21.4,30.27,West,270,0.0,0.0,100,0.00,,CLR,0.00,VWS V14.01,2013-03-08 12:15:00,
2013-03-08 07:20:00,22.6,22.6,30.27,West,270,2.2,2.2,100,0.00,,CLR,0.00,VWS V14.01,2013-03-08 12:20:00,
2013-03-08 07:25:00,22.6,22.6,30.27,West,270,0.0,0.0,100,0.00,,CLR,0.00,VWS V14.01,2013-03-08 12:25:00,
2013-03-08 07:30:00,22.8,22.8,30.27,West,270,0.0,0.0,100,0.00,,CLR,0.00,VWS V14.01,2013-03-08 12:30:00,
2013-03-08 07:35:00,23.2,23.2,30.27,West,270,0.0,0.0,100,0.00,,CLR,0.00,VWS V14.01,2013-03-08 12:35:00,
2013-03-08 07:41:00,23.4,23.4,30.27,West,270,0.0,0.0,100,0.00,,CLR,0.00,VWS V14.01,2013-03-08 12:41:00,
2013-03-08 07:46:00,24.1,24.1,30.27,West,270,0.0,0.0,100,0.00,,CLR,0.00,VWS V14.01,2013-03-08 12:46:00,
2013-03-08 07:51:00,24.8,24.8,30.27,West,270,0.0,0.0,100,0.00,,CLR,0.00,VWS V14.01,2013-03-08 12:51:00,
2013-03-08 07:56:00,25.3,25.3,30.27,West,270,0.0,0.0,100,0.00,,CLR,0.00,VWS V14.01,2013-03-08 12:56:00,
2013-03-08 08:01:00,26.2,26.2,30.27,West,270,0.0,0.0,100,0.00,,CLR,0.00,VWS V14.01,2013-03-08 13:01:00,
2013-03-08 08:06:00,27.7,27.7,30.27,West,270,0.0,2.2,100,0.00,,CLR,0.00,VWS V14.01,2013-03-08 13:06:00,
2013-03-08 08:11:00,29.3,29.3,30.27,West,270,0.0,2.2,100,0.00,,CLR,0.00,VWS V14.01,2013-03-08 13:11:00,
2013-03-08 08:16:00,30.7,30.7,30.27,West,270,0.0,0.0,100,0.00,,CLR,0.00,VWS V14.01,2013-03-08 13:16:00,
2013-03-08 08:21:00,31.8,31.8,30.27,West,270,0.0,0.0,100,0.00,,CLR,0.00,VWS V14.01,2013-03-08 13:21:00,
2013-03-08 08:26:00,32.4,32.4,30.27,West,270,0.0,0.0,100,0.00,,CLR,0.00,VWS V14.01,2013-03-08 13:26:00,
2013-03-08 08:31:00,33.1,33.1,30.27,West,270,2.7,2.7,100,0.00,,CLR,0.00,VWS V14.01,2013-03-08 13:31:00,
2013-03-08 08:36:00,33.6,33.6,30.27,West,270,0.0,0.0,100,0.00,,CLR,0.00,VWS V14.01,2013-03-08 13:36:00,
2013-03-08 08:41:00,34.0,34.0,30.27,West,270,3.1,3.1,100,0.00,,CLR,0.00,VWS V14.01,2013-03-08 13:41:00,
2013-03-08 08:46:00,34.7,34.7,30.27,NNW,338,3.6,3.6,100,0.00,,CLR,0.00,VWS V14.01,2013-03-08 13:46:00,
2013-03-08 08:51:00,35.6,35.6,30.27,NNW,338,3.1,3.1,100,0.00,,CLR,0.00,VWS V14.01,2013-03-08 13:51:00,
2013-03-08 08:56:00,36.1,36.1,30.27,WNW,292,3.1,3.1,100,0.00,,CLR,0.00,VWS V14.01,2013-03-08 13:56:00,
2013-03-08 09:01:00,36.7,34.6,30.27,North,0,3.6,3.6,92,0.00,,CLR,0.00,VWS V14.01,2013-03-08 14:01:00,
2013-03-08 09:06:00,37.4,33.6,30.27,North,0,2.7,2.7,86,0.00,,CLR,0.00,VWS V14.01,2013-03-08 14:06:00,
2013-03-08 09:11:00,37.9,33.5,30.27,North,0,2.7,3.1,84,0.00,,CLR,0.00,VWS V14.01,2013-03-08 14:11:00,
2013-03-08 09:16:00,38.5,34.1,30.27,NW,315,2.2,2.2,84,0.00,,CLR,0.00,VWS V14.01,2013-03-08 14:16:00,
2013-03-08 09:21:00,39.0,33.4,30.27,West,270,3.1,3.6,80,0.00,,CLR,0.00,VWS V14.01,2013-03-08 14:21:00,
2013-03-08 09:26:00,39.6,33.3,30.27,NNE,22,4.0,5.8,78,0.00,,CLR,0.00,VWS V14.01,2013-03-08 14:26:00,
2013-03-08 09:31:00,39.7,32.8,30.27,NNW,338,4.9,4.9,76,0.00,,CLR,0.00,VWS V14.01,2013-03-08 14:31:00,
2013-03-08 09:37:00,39.9,33.6,30.27,NNE,22,3.1,4.0,78,0.00,,CLR,0.00,VWS V14.01,2013-03-08 14:37:00,
2013-03-08 09:42:00,40.3,34.0,30.27,NNE,22,7.2,7.2,78,0.00,,CLR,0.00,VWS V14.01,2013-03-08 14:42:00,
2013-03-08 09:47:00,39.7,32.1,30.27,NNE,22,3.6,6.3,74,0.00,,CLR,0.00,VWS V14.01,2013-03-08 14:47:00,
2013-03-08 09:52:00,40.3,32.7,30.27,North,0,2.2,2.2,74,0.00,,CLR,0.00,VWS V14.01,2013-03-08 14:52:00,
2013-03-08 09:57:00,40.8,32.5,30.27,North,0,5.4,5.4,72,0.00,,CLR,0.00,VWS V14.01,2013-03-08 14:57:00,
2013-03-08 10:02:00,41.5,31.8,30.27,NNE,22,2.7,3.1,68,0.00,,CLR,0.00,VWS V14.01,2013-03-08 15:02:00,
2013-03-08 10:07:00,41.7,31.2,30.27,NNE,22,4.0,5.8,66,0.00,,CLR,0.00,VWS V14.01,2013-03-08 15:07:00,
2013-03-08 10:12:00,41.9,32.1,30.27,North,0,4.0,4.0,68,0.00,,CLR,0.00,VWS V14.01,2013-03-08 15:12:00,
2013-03-08 10:17:00,41.7,30.5,30.27,NE,45,3.6,3.6,64,0.00,,CLR,0.00,VWS V14.01,2013-03-08 15:17:00,
2013-03-08 10:22:00,42.8,31.5,30.30,NNE,22,3.6,3.6,64,0.00,,CLR,0.00,VWS V14.01,2013-03-08 15:22:00,
2013-03-08 10:27:00,44.6,32.4,30.30,North,0,2.7,3.6,62,0.00,,CLR,0.17,VWS V14.01,2013-03-08 15:27:00,
2013-03-08 10:32:00,45.3,32.3,30.30,NNW,338,2.7,3.1,60,0.00,,CLR,0.00,VWS V14.01,2013-03-08 15:32:00,
2013-03-08 10:37:00,45.3,31.4,30.30,West,270,4.0,4.0,58,0.00,,CLR,0.00,VWS V14.01,2013-03-08 15:37:00,
2013-03-08 10:42:00,45.1,30.4,30.30,WSW,248,4.5,4.5,56,0.00,,CLR,0.00,VWS V14.01,2013-03-08 15:42:00,
2013-03-08 10:47:00,46.4,31.6,30.30,WNW,292,3.1,4.0,56,0.00,,CLR,0.00,VWS V14.01,2013-03-08 15:47:00,
2013-03-08 10:52:00,46.2,31.4,30.27,West,270,0.0,3.1,56,0.00,,CLR,0.00,VWS V14.01,2013-03-08 15:52:00,
2013-03-08 10:57:00,47.3,31.5,30.27,WSW,248,2.2,3.1,54,0.00,,CLR,0.00,VWS V14.01,2013-03-08 15:57:00,
2013-03-08 11:02:00,48.0,32.2,30.27,NNE,22,3.6,4.0,54,0.00,,CLR,0.00,VWS V14.01,2013-03-08 16:02:00,
2013-03-08 11:07:00,48.7,32.8,30.27,NNE,22,4.9,4.9,54,0.00,,CLR,0.00,VWS V14.01,2013-03-08 16:07:00,
2013-03-08 11:12:00,48.0,32.2,30.27,WSW,248,3.6,4.0,54,0.00,,CLR,0.00,VWS V14.01,2013-03-08 16:12:00,
2013-03-08 11:17:00,48.7,31.9,30.27,NNW,338,2.2,3.1,52,0.00,,CLR,0.00,VWS V14.01,2013-03-08 16:17:00,
2013-03-08 11:22:00,49.6,32.8,30.30,WNW,292,4.9,5.4,52,0.00,,CLR,0.00,VWS V14.01,2013-03-08 16:22:00,
2013-03-08 11:27:00,47.8,32.0,30.30,WNW,292,2.7,3.6,54,0.00,,CLR,0.00,VWS V14.01,2013-03-08 16:27:00,
2013-03-08 11:33:00,50.2,33.2,30.30,NNE,22,3.6,3.6,52,0.00,,CLR,0.00,VWS V14.01,2013-03-08 16:33:00,
2013-03-08 11:38:00,50.7,33.8,30.27,WNW,292,5.4,5.4,52,0.00,,CLR,0.00,VWS V14.01,2013-03-08 16:38:00,
2013-03-08 11:43:00,49.8,32.9,30.27,West,270,3.1,3.1,52,0.00,,CLR,0.00,VWS V14.01,2013-03-08 16:43:00,
2013-03-08 11:48:00,48.9,32.1,30.27,South,180,3.6,3.6,52,0.00,,CLR,0.00,VWS V14.01,2013-03-08 16:48:00,
2013-03-08 11:53:00,50.5,33.6,30.27,South,180,0.0,3.6,52,0.00,,CLR,0.00,VWS V14.01,2013-03-08 16:53:00,
2013-03-08 11:58:00,49.6,30.8,30.27,SSW,202,2.7,5.4,48,0.00,,CLR,0.00,VWS V14.01,2013-03-08 16:58:00,
2013-03-08 12:03:00,50.7,33.8,30.27,NNE,22,4.5,4.5,52,0.00,,CLR,0.00,VWS V14.01,2013-03-08 17:03:00,
2013-03-08 12:08:00,52.2,32.0,30.27,WSW,248,6.7,6.7,46,0.00,,CLR,0.00,VWS V14.01,2013-03-08 17:08:00,
2013-03-08 12:13:00,50.9,31.9,30.27,WNW,292,3.1,5.8,48,0.00,,CLR,0.00,VWS V14.01,2013-03-08 17:13:00,
2013-03-08 12:18:00,52.7,32.5,30.27,NNE,22,3.1,3.6,46,0.00,,CLR,0.00,VWS V14.01,2013-03-08 17:18:00,
2013-03-08 12:23:00,51.8,29.5,30.27,North,0,4.0,4.9,42,0.00,,CLR,0.00,VWS V14.01,2013-03-08 17:23:00,
2013-03-08 12:28:00,51.8,29.5,30.27,WNW,292,2.2,3.1,42,0.00,,CLR,0.00,VWS V14.01,2013-03-08 17:28:00,
2013-03-08 12:33:00,51.6,32.6,30.27,WSW,248,3.1,3.6,48,0.00,,CLR,0.00,VWS V14.01,2013-03-08 17:33:00,
2013-03-08 12:38:00,52.9,30.4,30.24,NW,315,4.9,4.9,42,0.00,,CLR,0.00,VWS V14.01,2013-03-08 17:38:00,
2013-03-08 12:43:00,53.6,29.9,30.24,West,270,2.7,4.5,40,0.00,,CLR,0.00,VWS V14.01,2013-03-08 17:43:00,
2013-03-08 12:48:00,54.5,30.7,30.24,NNW,338,0.0,2.7,40,0.00,,CLR,0.00,VWS V14.01,2013-03-08 17:48:00,
2013-03-08 12:54:00,53.6,29.9,30.24,North,0,3.1,3.6,40,0.00,,CLR,0.00,VWS V14.01,2013-03-08 17:54:00,
2013-03-08 12:59:00,55.2,31.3,30.24,NNW,338,4.0,4.0,40,0.00,,CLR,0.00,VWS V14.01,2013-03-08 17:59:00,
2013-03-08 13:04:00,54.0,30.2,30.24,WSW,248,4.5,4.5,40,0.00,,CLR,0.00,VWS V14.01,2013-03-08 18:04:00,
2013-03-08 13:09:00,53.2,30.8,30.24,WNW,292,4.9,7.6,42,0.00,,CLR,0.00,VWS V14.01,2013-03-08 18:09:00,
2013-03-08 13:14:00,55.0,31.2,30.24,NNW,338,3.6,3.6,40,0.00,,CLR,0.00,VWS V14.01,2013-03-08 18:14:00,
2013-03-08 13:19:00,55.0,31.2,30.24,WNW,292,6.3,6.3,40,0.00,,CLR,0.00,VWS V14.01,2013-03-08 18:19:00,
2013-03-08 13:24:00,54.9,31.0,30.21,WNW,292,3.1,6.3,40,0.00,,CLR,0.00,VWS V14.01,2013-03-08 18:24:00,
2013-03-08 13:29:00,55.6,31.7,30.21,WNW,292,4.0,4.0,40,0.00,,CLR,0.00,VWS V14.01,2013-03-08 18:29:00,
2013-03-08 13:34:00,55.4,13.9,30.21,West,270,0.0,3.6,19,0.00,,CLR,0.00,VWS V14.01,2013-03-08 18:34:00,
2013-03-08 13:39:00,56.1,14.4,30.21,WNW,292,4.0,4.0,19,0.00,,CLR,0.00,VWS V14.01,2013-03-08 18:39:00,
2013-03-08 13:44:00,57.0,15.2,30.21,North,0,2.7,4.0,19,0.00,,CLR,0.00,VWS V14.01,2013-03-08 18:44:00,
2013-03-08 13:49:00,57.0,15.2,30.21,NNE,22,2.7,2.7,19,0.00,,CLR,0.00,VWS V14.01,2013-03-08 18:49:00,
2013-03-08 13:54:00,57.6,14.4,30.21,NNW,338,3.6,5.4,18,0.00,,CLR,0.00,VWS V14.01,2013-03-08 18:54:00,
2013-03-08 13:59:00,57.0,15.2,30.21,NNW,338,5.8,5.8,19,0.00,,CLR,0.00,VWS V14.01,2013-03-08 18:59:00,
2013-03-08 14:04:00,56.5,14.7,30.21,North,0,4.9,4.9,19,0.00,,CLR,0.00,VWS V14.01,2013-03-08 19:04:00,
2013-03-08 14:09:00,56.7,14.9,30.21,West,270,6.3,6.3,19,0.00,,CLR,0.00,VWS V14.01,2013-03-08 19:09:00,
2013-03-08 14:14:00,54.1,12.8,30.21,NNE,22,4.9,4.9,19,0.00,,CLR,0.00,VWS V14.01,2013-03-08 19:14:00,
2013-03-08 14:19:00,56.5,14.7,30.21,North,0,4.0,4.0,19,0.00,,CLR,0.00,VWS V14.01,2013-03-08 19:19:00,
2013-03-08 14:24:00,55.4,13.9,30.21,West,270,6.7,6.7,19,0.00,,CLR,0.00,VWS V14.01,2013-03-08 19:24:00,
2013-03-08 14:29:00,56.7,14.9,30.21,West,270,4.9,4.9,19,0.00,,CLR,0.00,VWS V14.01,2013-03-08 19:29:00,
2013-03-08 14:34:00,57.7,14.5,30.21,NW,315,4.0,4.9,18,0.00,,CLR,0.00,VWS V14.01,2013-03-08 19:34:00,
2013-03-08 14:39:00,57.0,15.2,30.21,North,0,3.1,4.9,19,0.00,,CLR,0.00,VWS V14.01,2013-03-08 19:39:00,
2013-03-08 14:44:00,56.5,14.7,30.21,North,0,2.7,4.9,19,0.00,,CLR,0.00,VWS V14.01,2013-03-08 19:44:00,
2013-03-08 14:49:00,57.2,14.1,30.21,West,270,4.5,4.5,18,0.00,,CLR,0.00,VWS V14.01,2013-03-08 19:49:00,
2013-03-08 14:54:00,57.6,14.4,30.21,WNW,292,6.3,6.3,18,0.00,,CLR,0.00,VWS V14.01,2013-03-08 19:54:00,
2013-03-08 14:59:00,55.8,14.1,30.21,NNW,338,3.1,4.0,19,0.00,,CLR,0.00,VWS V14.01,2013-03-08 19:59:00,
2013-03-08 15:05:00,55.8,14.1,30.21,WNW,292,4.0,4.0,19,0.00,,CLR,0.00,VWS V14.01,2013-03-08 20:05:00,
2013-03-08 15:10:00,56.7,14.9,30.21,WNW,292,6.3,6.3,19,0.00,,CLR,0.00,VWS V14.01,2013-03-08 20:10:00,
2013-03-08 15:15:00,55.2,13.7,30.21,NNW,338,0.0,0.0,19,0.00,,CLR,0.00,VWS V14.01,2013-03-08 20:15:00,
2013-03-08 15:20:00,56.1,14.4,30.21,North,0,3.6,4.0,19,0.00,,CLR,0.00,VWS V14.01,2013-03-08 20:20:00,
2013-03-08 15:25:00,56.7,14.9,30.21,NE,45,3.1,4.0,19,0.00,,CLR,0.00,VWS V14.01,2013-03-08 20:25:00,
2013-03-08 15:30:00,56.1,14.4,30.21,NNW,338,3.6,3.6,19,0.00,,CLR,0.00,VWS V14.01,2013-03-08 20:30:00,
2013-03-08 15:35:00,55.6,14.0,30.21,WNW,292,4.0,5.4,19,0.00,,CLR,0.00,VWS V14.01,2013-03-08 20:35:00,
2013-03-08 15:40:00,56.3,14.6,30.21,NNE,22,2.7,3.6,19,0.00,,CLR,0.00,VWS V14.01,2013-03-08 20:40:00,
2013-03-08 15:45:00,56.5,14.7,30.21,West,270,3.1,3.1,19,0.00,,CLR,0.00,VWS V14.01,2013-03-08 20:45:00,
2013-03-08 15:50:00,56.7,14.9,30.21,NNE,22,3.6,4.5,19,0.00,,CLR,0.00,VWS V14.01,2013-03-08 20:50:00,
2013-03-08 15:55:00,57.0,15.2,30.21,WSW,248,3.6,3.6,19,0.00,,CLR,0.00,VWS V14.01,2013-03-08 20:55:00,
2013-03-08 16:00:00,56.8,15.0,30.21,North,0,0.0,2.7,19,0.00,,CLR,0.00,VWS V14.01,2013-03-08 21:00:00,
2013-03-08 16:05:00,56.3,14.6,30.21,NNW,338,3.1,3.6,19,0.00,,CLR,0.00,VWS V14.01,2013-03-08 21:05:00,
2013-03-08 16:10:00,56.5,14.7,30.21,NNW,338,2.7,2.7,19,0.00,,CLR,0.00,VWS V14.01,2013-03-08 21:10:00,
2013-03-08 16:15:00,56.3,14.6,30.21,NNE,22,3.1,6.7,19,0.00,,CLR,0.00,VWS V14.01,2013-03-08 21:15:00,
2013-03-08 16:20:00,56.1,14.4,30.21,North,0,5.4,5.4,19,0.00,,CLR,0.00,VWS V14.01,2013-03-08 21:20:00,
2013-03-08 16:26:00,55.9,14.3,30.21,NNE,22,5.8,5.8,19,0.00,,CLR,0.00,VWS V14.01,2013-03-08 21:26:00,
2013-03-08 16:31:00,56.1,14.4,30.21,WNW,292,4.9,4.9,19,0.00,,CLR,0.00,VWS V14.01,2013-03-08 21:31:00,
2013-03-08 16:36:00,55.0,13.6,30.18,NNW,338,2.2,3.1,19,0.00,,CLR,0.00,VWS V14.01,2013-03-08 21:36:00,
2013-03-08 16:41:00,55.0,13.6,30.18,NNE,22,4.9,5.8,19,0.00,,CLR,0.00,VWS V14.01,2013-03-08 21:41:00,
2013-03-08 16:46:00,54.3,12.9,30.18,NNE,22,3.6,4.9,19,0.00,,CLR,0.00,VWS V14.01,2013-03-08 21:46:00,
2013-03-08 16:51:00,53.6,12.4,30.18,NNE,22,4.9,4.9,19,0.00,,CLR,0.00,VWS V14.01,2013-03-08 21:51:00,
2013-03-08 16:56:00,53.2,13.2,30.18,North,0,3.6,4.0,20,0.00,,CLR,0.00,VWS V14.01,2013-03-08 21:56:00,
2013-03-08 17:01:00,53.1,13.1,30.18,NE,45,7.6,7.6,20,0.00,,CLR,0.00,VWS V14.01,2013-03-08 22:01:00,
2013-03-08 17:06:00,52.7,12.8,30.18,NNE,22,4.0,4.0,20,0.00,,CLR,0.00,VWS V14.01,2013-03-08 22:06:00,
2013-03-08 17:11:00,52.3,12.5,30.18,NNE,22,4.0,5.8,20,0.00,,CLR,0.00,VWS V14.01,2013-03-08 22:11:00,
2013-03-08 17:16:00,52.2,12.3,30.18,North,0,4.0,5.8,20,0.00,,CLR,0.00,VWS V14.01,2013-03-08 22:16:00,
2013-03-08 17:21:00,52.0,12.2,30.18,NNE,22,3.1,3.1,20,0.00,,CLR,0.00,VWS V14.01,2013-03-08 22:21:00,
2013-03-08 17:26:00,51.8,12.0,30.18,NNE,22,3.6,5.4,20,0.00,,CLR,0.00,VWS V14.01,2013-03-08 22:26:00,
2013-03-08 17:31:00,51.8,12.0,30.18,NNE,22,3.1,3.1,20,0.00,,CLR,0.00,VWS V14.01,2013-03-08 22:31:00,
2013-03-08 17:36:00,51.6,11.9,30.18,North,0,3.1,4.0,20,0.00,,CLR,0.00,VWS V14.01,2013-03-08 22:36:00,
2013-03-08 17:41:00,51.6,11.9,30.18,NNW,338,3.6,3.6,20,0.00,,CLR,0.00,VWS V14.01,2013-03-08 22:41:00,
2013-03-08 17:46:00,51.4,11.7,30.18,NNE,22,3.6,3.6,20,0.00,,CLR,0.00,VWS V14.01,2013-03-08 22:46:00,
2013-03-08 17:52:00,51.1,11.4,30.18,NNE,22,4.5,4.9,20,0.00,,CLR,0.00,VWS V14.01,2013-03-08 22:52:00,
2013-03-08 17:57:00,51.1,11.4,30.18,NNW,338,4.5,4.5,20,0.00,,CLR,0.00,VWS V14.01,2013-03-08 22:57:00,
2013-03-08 18:02:00,50.7,11.1,30.18,NNE,22,4.9,4.9,20,0.00,,CLR,0.00,VWS V14.01,2013-03-08 23:02:00,
2013-03-08 18:07:00,50.7,11.1,30.18,NNE,22,3.1,3.1,20,0.00,,CLR,0.00,VWS V14.01,2013-03-08 23:07:00,
2013-03-08 18:12:00,49.6,13.4,30.18,NNE,22,4.0,4.9,23,0.00,,CLR,0.00,VWS V14.01,2013-03-08 23:12:00,
2013-03-08 18:17:00,49.6,10.2,30.18,NNE,22,3.1,3.1,20,0.00,,CLR,0.00,VWS V14.01,2013-03-08 23:17:00,
2013-03-08 18:22:00,49.1,9.8,30.18,NNE,22,3.1,3.1,20,0.00,,CLR,0.00,VWS V14.01,2013-03-08 23:22:00,
2013-03-08 18:27:00,48.6,12.5,30.18,NNE,22,0.0,0.0,23,0.00,,CLR,0.00,VWS V14.01,2013-03-08 23:27:00,
2013-03-08 18:32:00,47.8,11.9,30.18,NNE,22,2.7,2.7,23,0.00,,CLR,0.00,VWS V14.01,2013-03-08 23:32:00,
2013-03-08 18:37:00,47.3,11.4,30.21,NNE,22,2.2,2.7,23,0.00,,CLR,0.00,VWS V14.01,2013-03-08 23:37:00,
2013-03-08 18:42:00,47.1,14.0,30.21,NNE,22,3.6,4.0,26,0.00,,CLR,0.00,VWS V14.01,2013-03-08 23:42:00,
2013-03-08 18:47:00,46.6,13.6,30.21,NNE,22,2.7,2.7,26,0.00,,CLR,0.00,VWS V14.01,2013-03-08 23:47:00,
2013-03-08 18:52:00,46.6,13.6,30.21,NNE,22,0.0,2.7,26,0.00,,CLR,0.00,VWS V14.01,2013-03-08 23:52:00,
2013-03-08 18:57:00,46.6,13.6,30.21,NNE,22,3.1,3.1,26,0.00,,CLR,0.00,VWS V14.01,2013-03-08 23:57:00,
2013-03-08 19:02:00,46.0,13.9,30.21,NNE,22,3.1,3.1,27,0.00,,CLR,0.00,VWS V14.01,2013-03-09 00:02:00,
2013-03-08 19:07:00,45.9,13.8,30.21,NNE,22,2.7,2.7,27,0.00,,CLR,0.00,VWS V14.01,2013-03-09 00:07:00,
2013-03-08 19:12:00,44.8,12.9,30.21,NNE,22,0.0,2.2,27,0.00,,CLR,0.00,VWS V14.01,2013-03-09 00:12:00,
2013-03-08 19:17:00,43.9,12.9,30.21,NNE,22,0.0,0.0,28,0.00,,CLR,0.00,VWS V14.01,2013-03-09 00:17:00,
2013-03-08 19:22:00,43.2,13.1,30.21,NNE,22,0.0,0.0,29,0.00,,CLR,0.00,VWS V14.01,2013-03-09 00:22:00,
2013-03-08 19:27:00,42.6,13.4,30.21,NNE,22,0.0,0.0,30,0.00,,CLR,0.00,VWS V14.01,2013-03-09 00:27:00,
2013-03-08 19:33:00,42.1,13.6,30.21,NNE,22,0.0,0.0,31,0.00,,CLR,0.00,VWS V14.01,2013-03-09 00:33:00,
2013-03-08 19:38:00,41.5,13.9,30.24,NNE,22,0.0,0.0,32,0.00,,CLR,0.00,VWS V14.01,2013-03-09 00:38:00,
2013-03-08 19:43:00,41.0,13.4,30.24,NNE,22,0.0,0.0,32,0.00,,CLR,0.00,VWS V14.01,2013-03-09 00:43:00,
2013-03-08 19:48:00,41.5,14.6,30.24,NNE,22,2.7,2.7,33,0.00,,CLR,0.00,VWS V14.01,2013-03-09 00:48:00,
2013-03-08 19:53:00,42.3,13.8,30.24,NNE,22,0.0,0.0,31,0.00,,CLR,0.00,VWS V14.01,2013-03-09 00:53:00,
2013-03-08 19:58:00,42.1,13.6,30.24,NNE,22,0.0,0.0,31,0.00,,CLR,0.00,VWS V14.01,2013-03-09 00:58:00,
2013-03-08 20:03:00,41.9,13.5,30.24,NNE,22,0.0,0.0,31,0.00,,CLR,0.00,VWS V14.01,2013-03-09 01:03:00,
2013-03-08 20:08:00,42.1,13.6,30.24,NNE,22,0.0,0.0,31,0.00,,CLR,0.00,VWS V14.01,2013-03-09 01:08:00,
2013-03-08 20:13:00,41.7,13.3,30.24,NNE,22,2.2,2.2,31,0.00,,CLR,0.00,VWS V14.01,2013-03-09 01:13:00,
2013-03-08 20:18:00,41.0,13.4,30.24,NNE,22,0.0,0.0,32,0.00,,CLR,0.00,VWS V14.01,2013-03-09 01:18:00,
2013-03-08 20:23:00,40.3,13.5,30.24,NNE,22,0.0,0.0,33,0.00,,CLR,0.00,VWS V14.01,2013-03-09 01:23:00,
2013-03-08 20:28:00,39.4,14.0,30.24,NNE,22,0.0,0.0,35,0.00,,CLR,0.00,VWS V14.01,2013-03-09 01:28:00,
2013-03-08 20:33:00,38.8,14.2,30.24,NNE,22,0.0,0.0,36,0.00,,CLR,0.00,VWS V14.01,2013-03-09 01:33:00,
2013-03-08 20:38:00,37.8,15.0,30.24,NNE,22,2.7,3.6,39,0.00,,CLR,0.00,VWS V14.01,2013-03-09 01:38:00,
2013-03-08 20:43:00,38.5,16.3,30.24,NNE,22,2.2,2.7,40,0.00,,CLR,0.00,VWS V14.01,2013-03-09 01:43:00,
2013-03-08 20:49:00,38.1,15.9,30.24,NNE,22,0.0,0.0,40,0.00,,CLR,0.00,VWS V14.01,2013-03-09 01:49:00,
2013-03-08 20:54:00,38.5,16.3,30.24,NNE,22,2.2,2.7,40,0.00,,CLR,0.00,VWS V14.01,2013-03-09 01:54:00,
2013-03-08 20:59:00,37.9,15.8,30.24,NNE,22,0.0,0.0,40,0.00,,CLR,0.00,VWS V14.01,2013-03-09 01:59:00,
2013-03-08 21:04:00,37.6,15.5,30.24,NNE,22,0.0,0.0,40,0.00,,CLR,0.00,VWS V14.01,2013-03-09 02:04:00,
2013-03-08 21:09:00,37.4,15.3,30.24,NNE,22,0.0,0.0,40,0.00,,CLR,0.00,VWS V14.01,2013-03-09 02:09:00,
2013-03-08 21:14:00,37.2,15.1,30.24,NNE,22,0.0,0.0,40,0.00,,CLR,0.00,VWS V14.01,2013-03-09 02:14:00,
2013-03-08 21:19:00,37.0,15.0,30.24,NNE,22,0.0,0.0,40,0.00,,CLR,0.00,VWS V14.01,2013-03-09 02:19:00,
2013-03-08 21:24:00,37.0,15.5,30.27,NNE,22,2.2,2.2,41,0.00,,CLR,0.00,VWS V14.01,2013-03-09 02:24:00,
2013-03-08 21:29:00,37.6,16.0,30.27,NNE,22,2.2,2.2,41,0.00,,CLR,0.00,VWS V14.01,2013-03-09 02:29:00,
2013-03-08 21:34:00,37.4,15.9,30.27,NNE,22,0.0,0.0,41,0.00,,CLR,0.00,VWS V14.01,2013-03-09 02:34:00,
2013-03-08 21:39:00,36.9,15.4,30.27,NNE,22,0.0,0.0,41,0.00,,CLR,0.00,VWS V14.01,2013-03-09 02:39:00,
2013-03-08 21:44:00,36.1,15.8,30.27,NNE,22,0.0,0.0,43,0.00,,CLR,0.00,VWS V14.01,2013-03-09 02:44:00,
2013-03-08 21:49:00,35.4,16.2,30.27,NNE,22,0.0,0.0,45,0.00,,CLR,0.00,VWS V14.01,2013-03-09 02:49:00,
2013-03-08 21:54:00,34.9,16.2,30.27,NNE,22,0.0,0.0,46,0.00,,CLR,0.00,VWS V14.01,2013-03-09 02:54:00,
2013-03-08 21:59:00,34.2,17.0,30.27,NNE,22,2.2,2.2,49,0.00,,CLR,0.00,VWS V14.01,2013-03-09 02:59:00,
2013-03-08 22:04:00,34.0,17.3,30.27,NNE,22,0.0,2.2,50,0.00,,CLR,0.00,VWS V14.01,2013-03-09 03:04:00,
2013-03-08 22:09:00,33.8,17.6,30.27,NNE,22,0.0,0.0,51,0.00,,CLR,0.00,VWS V14.01,2013-03-09 03:09:00,
2013-03-08 22:14:00,33.6,17.9,30.27,NNE,22,0.0,0.0,52,0.00,,CLR,0.00,VWS V14.01,2013-03-09 03:14:00,
2013-03-08 22:19:00,33.8,18.0,30.27,NNE,22,2.2,2.7,52,0.00,,CLR,0.00,VWS V14.01,2013-03-09 03:19:00,
2013-03-08 22:24:00,33.8,18.0,30.27,NNE,22,0.0,2.2,52,0.00,,CLR,0.00,VWS V14.01,2013-03-09 03:24:00,
2013-03-08 22:29:00,34.3,18.1,30.27,NNE,22,0.0,0.0,51,0.00,,CLR,0.00,VWS V14.01,2013-03-09 03:29:00,
2013-03-08 22:34:00,34.0,17.3,30.27,NNE,22,0.0,0.0,50,0.00,,CLR,0.00,VWS V14.01,2013-03-09 03:34:00,
2013-03-08 22:39:00,35.4,18.2,30.27,NNE,22,2.2,2.2,49,0.00,,CLR,0.00,VWS V14.01,2013-03-09 03:39:00,
2013-03-08 22:44:00,35.4,18.2,30.27,NNE,22,2.2,2.2,49,0.00,,CLR,0.00,VWS V14.01,2013-03-09 03:44:00,
2013-03-08 22:50:00,35.6,17.4,30.27,NNE,22,0.0,2.7,47,0.00,,CLR,0.00,VWS V14.01,2013-03-09 03:50:00,
2013-03-08 22:55:00,35.4,17.2,30.27,NNE,22,0.0,0.0,47,0.00,,CLR,0.00,VWS V14.01,2013-03-09 03:55:00,
2013-03-08 23:00:00,34.9,17.2,30.27,ENE,68,0.0,2.7,48,0.00,,CLR,0.00,VWS V14.01,2013-03-09 04:00:00,
2013-03-08 23:05:00,34.0,16.8,30.27,NNE,22,2.7,3.1,49,0.00,,CLR,0.00,VWS V14.01,2013-03-09 04:05:00,
2013-03-08 23:10:00,33.3,17.1,30.27,NNE,22,0.0,0.0,51,0.00,,CLR,0.00,VWS V14.01,2013-03-09 04:10:00,
2013-03-08 23:15:00,32.7,17.5,30.27,NNE,22,0.0,0.0,53,0.00,,CLR,0.00,VWS V14.01,2013-03-09 04:15:00,
2013-03-08 23:20:00,32.2,17.4,30.27,NNE,22,0.0,0.0,54,0.00,,CLR,0.00,VWS V14.01,2013-03-09 04:20:00,
2013-03-08 23:25:00,31.1,17.7,30.27,ESE,112,3.1,4.0,57,0.00,,CLR,0.00,VWS V14.01,2013-03-09 04:25:00,
2013-03-08 23:30:00,30.9,17.9,30.27,ESE,112,0.0,0.0,58,0.00,,CLR,0.00,VWS V14.01,2013-03-09 04:30:00,
2013-03-08 23:35:00,30.6,18.0,30.27,ESE,112,0.0,0.0,59,0.00,,CLR,0.00,VWS V14.01,2013-03-09 04:35:00,
2013-03-08 23:40:00,30.4,18.6,30.27,ESE,112,0.0,0.0,61,0.00,,CLR,0.00,VWS V14.01,2013-03-09 04:40:00,
2013-03-08 23:45:00,30.0,18.6,30.27,ESE,112,0.0,0.0,62,0.00,,CLR,0.00,VWS V14.01,2013-03-09 04:45:00,
2013-03-08 23:50:00,29.8,19.2,30.27,ESE,112,2.2,2.2,64,0.00,,CLR,0.00,VWS V14.01,2013-03-09 04:50:00,
2013-03-08 23:55:00,29.5,19.5,30.27,ESE,112,2.2,2.7,66,0.00,,CLR,0.00,VWS V14.01,2013-03-09 04:55:00,